sensor_id;sensor_type;location;lat;lon;timestamp;temperature;humidity
52481;DHT22;38393;52.404;13.532;2023-12-20T00:00:21;6.30;99.90
52481;DHT22;38393;52.404;13.532;2023-12-20T00:02:46;6.30;99.90
52481;DHT22;38393;52.404;13.532;2023-12-20T00:05:13;6.30;99.90
52481;DHT22;38393;52.404;13.532;2023-12-20T00:07:39;6.40;99.90
52481;DHT22;38393;52.404;13.532;2023-12-20T00:10:05;6.50;99.90
52481;DHT22;38393;52.404;13.532;2023-12-20T00:12:30;6.30;99.90
52481;DHT22;38393;52.404;13.532;2023-12-20T00:14:56;6.30;99.90
52481;DHT22;38393;52.404;13.532;2023-12-20T00:17:21;6.30;99.90
52481;DHT22;38393;52.404;13.532;2023-12-20T00:19:47;6.40;99.90
52481;DHT22;38393;52.404;13.532;2023-12-20T00:22:12;6.30;99.90
52481;DHT22;38393;52.404;13.532;2023-12-20T00:24:38;6.40;99.90
52481;DHT22;38393;52.404;13.532;2023-12-20T00:27:03;6.30;99.90
52481;DHT22;38393;52.404;13.532;2023-12-20T00:29:29;6.40;99.90
52481;DHT22;38393;52.404;13.532;2023-12-20T00:31:54;6.40;99.90
52481;DHT22;38393;52.404;13.532;2023-12-20T00:34:20;6.30;99.90
52481;DHT22;38393;52.404;13.532;2023-12-20T00:36:45;6.30;99.90
52481;DHT22;38393;52.404;13.532;2023-12-20T00:39:11;6.30;99.90
52481;DHT22;38393;52.404;13.532;2023-12-20T00:41:36;6.30;99.90
52481;DHT22;38393;52.404;13.532;2023-12-20T00:44:02;6.30;99.90
52481;DHT22;38393;52.404;13.532;2023-12-20T00:46:28;6.40;99.90
52481;DHT22;38393;52.404;13.532;2023-12-20T00:48:53;6.40;99.90
52481;DHT22;38393;52.404;13.532;2023-12-20T00:51:19;6.30;99.90
52481;DHT22;38393;52.404;13.532;2023-12-20T00:53:44;6.30;99.90
52481;DHT22;38393;52.404;13.532;2023-12-20T00:56:10;6.30;99.90
52481;DHT22;38393;52.404;13.532;2023-12-20T00:58:35;6.30;99.90
52481;DHT22;38393;52.404;13.532;2023-12-20T01:01:01;6.30;99.90
52481;DHT22;38393;52.404;13.532;2023-12-20T01:03:26;6.30;99.90
52481;DHT22;38393;52.404;13.532;2023-12-20T01:05:52;6.30;99.90
52481;DHT22;38393;52.404;13.532;2023-12-20T01:08:17;6.30;99.90
52481;DHT22;38393;52.404;13.532;2023-12-20T01:10:43;6.30;99.90
52481;DHT22;38393;52.404;13.532;2023-12-20T01:13:08;6.30;99.90
52481;DHT22;38393;52.404;13.532;2023-12-20T01:15:34;6.30;99.90
52481;DHT22;38393;52.404;13.532;2023-12-20T01:17:59;6.30;99.90
52481;DHT22;38393;52.404;13.532;2023-12-20T01:20:25;6.30;99.90
52481;DHT22;38393;52.404;13.532;2023-12-20T01:22:50;6.30;99.90
52481;DHT22;38393;52.404;13.532;2023-12-20T01:25:16;6.30;99.90
52481;DHT22;38393;52.404;13.532;2023-12-20T01:27:41;6.30;99.90
52481;DHT22;38393;52.404;13.532;2023-12-20T01:30:07;6.30;99.90
52481;DHT22;38393;52.404;13.532;2023-12-20T01:32:33;6.30;99.90
52481;DHT22;38393;52.404;13.532;2023-12-20T01:34:58;6.30;99.90
52481;DHT22;38393;52.404;13.532;2023-12-20T01:37:26;6.30;99.90
52481;DHT22;38393;52.404;13.532;2023-12-20T01:39:54;6.30;99.90
52481;DHT22;38393;52.404;13.532;2023-12-20T01:42:19;6.30;99.90
52481;DHT22;38393;52.404;13.532;2023-12-20T01:44:45;6.30;99.90
52481;DHT22;38393;52.404;13.532;2023-12-20T01:47:10;6.30;99.90
52481;DHT22;38393;52.404;13.532;2023-12-20T01:49:36;6.30;99.90
52481;DHT22;38393;52.404;13.532;2023-12-20T01:52:02;6.30;99.90
52481;DHT22;38393;52.404;13.532;2023-12-20T01:54:28;6.30;99.90
52481;DHT22;38393;52.404;13.532;2023-12-20T01:56:54;6.30;99.90
52481;DHT22;38393;52.404;13.532;2023-12-20T01:59:20;6.30;99.90
52481;DHT22;38393;52.404;13.532;2023-12-20T02:01:47;6.30;99.90
52481;DHT22;38393;52.404;13.532;2023-12-20T02:04:12;6.30;99.90
52481;DHT22;38393;52.404;13.532;2023-12-20T02:06:39;6.30;99.90
52481;DHT22;38393;52.404;13.532;2023-12-20T02:09:05;6.30;99.90
52481;DHT22;38393;52.404;13.532;2023-12-20T02:11:31;6.30;99.90
52481;DHT22;38393;52.404;13.532;2023-12-20T02:13:58;6.30;99.90
52481;DHT22;38393;52.404;13.532;2023-12-20T02:16:23;6.30;99.90
52481;DHT22;38393;52.404;13.532;2023-12-20T02:18:49;6.30;99.90
52481;DHT22;38393;52.404;13.532;2023-12-20T02:21:14;6.20;99.90
52481;DHT22;38393;52.404;13.532;2023-12-20T02:23:40;6.30;99.90
52481;DHT22;38393;52.404;13.532;2023-12-20T02:26:05;6.30;99.90
52481;DHT22;38393;52.404;13.532;2023-12-20T02:28:31;6.40;99.90
52481;DHT22;38393;52.404;13.532;2023-12-20T02:30:57;6.40;99.90
52481;DHT22;38393;52.404;13.532;2023-12-20T02:33:22;6.50;99.90
52481;DHT22;38393;52.404;13.532;2023-12-20T02:35:48;6.40;99.90
52481;DHT22;38393;52.404;13.532;2023-12-20T02:38:13;6.40;99.90
52481;DHT22;38393;52.404;13.532;2023-12-20T02:40:39;6.40;99.90
52481;DHT22;38393;52.404;13.532;2023-12-20T02:43:04;6.40;99.90
52481;DHT22;38393;52.404;13.532;2023-12-20T02:45:30;6.50;99.90
52481;DHT22;38393;52.404;13.532;2023-12-20T02:47:55;6.40;99.90
52481;DHT22;38393;52.404;13.532;2023-12-20T02:50:21;6.40;99.90
52481;DHT22;38393;52.404;13.532;2023-12-20T02:52:47;6.40;99.90
52481;DHT22;38393;52.404;13.532;2023-12-20T02:55:12;6.50;99.90
52481;DHT22;38393;52.404;13.532;2023-12-20T02:57:38;6.50;99.90
52481;DHT22;38393;52.404;13.532;2023-12-20T03:00:10;6.60;99.90
52481;DHT22;38393;52.404;13.532;2023-12-20T03:02:36;6.60;99.90
52481;DHT22;38393;52.404;13.532;2023-12-20T03:05:02;6.60;99.90
52481;DHT22;38393;52.404;13.532;2023-12-20T03:07:27;6.60;99.90
52481;DHT22;38393;52.404;13.532;2023-12-20T03:09:53;6.70;99.90
52481;DHT22;38393;52.404;13.532;2023-12-20T03:12:18;6.70;99.90
52481;DHT22;38393;52.404;13.532;2023-12-20T03:14:44;6.70;99.90
52481;DHT22;38393;52.404;13.532;2023-12-20T03:17:10;6.70;99.90
52481;DHT22;38393;52.404;13.532;2023-12-20T03:19:35;6.70;99.90
52481;DHT22;38393;52.404;13.532;2023-12-20T03:22:01;6.80;99.90
52481;DHT22;38393;52.404;13.532;2023-12-20T03:24:27;6.80;99.90
52481;DHT22;38393;52.404;13.532;2023-12-20T03:26:53;6.80;99.90
52481;DHT22;38393;52.404;13.532;2023-12-20T03:29:18;6.70;99.90
52481;DHT22;38393;52.404;13.532;2023-12-20T03:31:44;6.80;99.90
52481;DHT22;38393;52.404;13.532;2023-12-20T03:34:09;6.80;99.90
52481;DHT22;38393;52.404;13.532;2023-12-20T03:36:36;6.90;99.90
52481;DHT22;38393;52.404;13.532;2023-12-20T03:39:01;6.90;99.90
52481;DHT22;38393;52.404;13.532;2023-12-20T03:41:27;6.90;99.90
52481;DHT22;38393;52.404;13.532;2023-12-20T03:43:52;6.90;99.90
52481;DHT22;38393;52.404;13.532;2023-12-20T03:46:17;6.90;99.90
52481;DHT22;38393;52.404;13.532;2023-12-20T03:48:43;6.90;99.90
52481;DHT22;38393;52.404;13.532;2023-12-20T03:51:08;7.00;99.90
52481;DHT22;38393;52.404;13.532;2023-12-20T03:53:34;7.00;99.90
52481;DHT22;38393;52.404;13.532;2023-12-20T03:55:59;6.90;99.90
52481;DHT22;38393;52.404;13.532;2023-12-20T03:58:25;6.80;99.90
52481;DHT22;38393;52.404;13.532;2023-12-20T04:00:50;6.80;99.90
52481;DHT22;38393;52.404;13.532;2023-12-20T04:03:16;6.90;99.90
52481;DHT22;38393;52.404;13.532;2023-12-20T04:05:41;6.80;99.90
52481;DHT22;38393;52.404;13.532;2023-12-20T04:08:07;6.80;99.90
52481;DHT22;38393;52.404;13.532;2023-12-20T04:10:33;6.70;99.90
52481;DHT22;38393;52.404;13.532;2023-12-20T04:12:58;6.70;99.90
52481;DHT22;38393;52.404;13.532;2023-12-20T04:15:24;6.80;99.90
52481;DHT22;38393;52.404;13.532;2023-12-20T04:17:49;6.70;99.90
52481;DHT22;38393;52.404;13.532;2023-12-20T04:20:15;6.80;99.90
52481;DHT22;38393;52.404;13.532;2023-12-20T04:22:40;6.70;99.90
52481;DHT22;38393;52.404;13.532;2023-12-20T04:25:06;6.80;99.90
52481;DHT22;38393;52.404;13.532;2023-12-20T04:27:31;6.70;99.90
52481;DHT22;38393;52.404;13.532;2023-12-20T04:29:57;6.70;99.90
52481;DHT22;38393;52.404;13.532;2023-12-20T04:32:22;6.70;99.90
52481;DHT22;38393;52.404;13.532;2023-12-20T04:34:48;6.70;99.90
52481;DHT22;38393;52.404;13.532;2023-12-20T04:37:13;6.60;99.90
52481;DHT22;38393;52.404;13.532;2023-12-20T04:39:39;6.60;99.90
52481;DHT22;38393;52.404;13.532;2023-12-20T04:42:06;6.40;99.90
52481;DHT22;38393;52.404;13.532;2023-12-20T04:44:31;6.60;99.90
52481;DHT22;38393;52.404;13.532;2023-12-20T04:46:56;6.60;99.90
52481;DHT22;38393;52.404;13.532;2023-12-20T04:49:22;6.50;99.90
52481;DHT22;38393;52.404;13.532;2023-12-20T04:51:48;6.50;99.90
52481;DHT22;38393;52.404;13.532;2023-12-20T04:54:14;6.50;99.90
52481;DHT22;38393;52.404;13.532;2023-12-20T04:56:40;6.30;99.90
52481;DHT22;38393;52.404;13.532;2023-12-20T04:59:05;6.40;99.90
52481;DHT22;38393;52.404;13.532;2023-12-20T05:01:31;6.40;99.90
52481;DHT22;38393;52.404;13.532;2023-12-20T05:03:56;6.40;99.90
52481;DHT22;38393;52.404;13.532;2023-12-20T05:06:22;6.30;99.90
52481;DHT22;38393;52.404;13.532;2023-12-20T05:08:47;6.30;99.90
52481;DHT22;38393;52.404;13.532;2023-12-20T05:11:13;6.10;99.90
52481;DHT22;38393;52.404;13.532;2023-12-20T05:13:39;6.20;99.90
52481;DHT22;38393;52.404;13.532;2023-12-20T05:16:05;6.20;99.90
52481;DHT22;38393;52.404;13.532;2023-12-20T05:18:30;6.10;99.90
52481;DHT22;38393;52.404;13.532;2023-12-20T05:20:56;6.00;99.90
52481;DHT22;38393;52.404;13.532;2023-12-20T05:23:22;5.90;99.90
52481;DHT22;38393;52.404;13.532;2023-12-20T05:25:47;5.90;99.90
52481;DHT22;38393;52.404;13.532;2023-12-20T05:28:13;5.80;99.90
52481;DHT22;38393;52.404;13.532;2023-12-20T05:30:38;5.90;99.90
52481;DHT22;38393;52.404;13.532;2023-12-20T05:33:04;5.90;99.90
52481;DHT22;38393;52.404;13.532;2023-12-20T05:35:29;5.90;99.90
52481;DHT22;38393;52.404;13.532;2023-12-20T05:37:55;5.90;99.90
52481;DHT22;38393;52.404;13.532;2023-12-20T05:40:20;5.90;99.90
52481;DHT22;38393;52.404;13.532;2023-12-20T05:42:45;6.00;99.90
52481;DHT22;38393;52.404;13.532;2023-12-20T05:45:11;6.00;99.90
52481;DHT22;38393;52.404;13.532;2023-12-20T05:47:37;5.90;99.90
52481;DHT22;38393;52.404;13.532;2023-12-20T05:50:02;5.90;99.90
52481;DHT22;38393;52.404;13.532;2023-12-20T05:52:29;5.90;99.90
52481;DHT22;38393;52.404;13.532;2023-12-20T05:54:54;5.80;99.90
52481;DHT22;38393;52.404;13.532;2023-12-20T05:57:22;5.70;99.90
52481;DHT22;38393;52.404;13.532;2023-12-20T05:59:48;5.60;99.90
52481;DHT22;38393;52.404;13.532;2023-12-20T06:02:14;5.60;99.90
52481;DHT22;38393;52.404;13.532;2023-12-20T06:04:42;5.50;99.90
52481;DHT22;38393;52.404;13.532;2023-12-20T06:07:08;5.30;99.90
52481;DHT22;38393;52.404;13.532;2023-12-20T06:09:33;5.40;99.90
52481;DHT22;38393;52.404;13.532;2023-12-20T06:11:59;5.30;99.90
52481;DHT22;38393;52.404;13.532;2023-12-20T06:14:24;5.20;99.90
52481;DHT22;38393;52.404;13.532;2023-12-20T06:16:51;5.20;99.90
52481;DHT22;38393;52.404;13.532;2023-12-20T06:19:16;5.10;99.90
52481;DHT22;38393;52.404;13.532;2023-12-20T06:21:42;5.10;99.90
52481;DHT22;38393;52.404;13.532;2023-12-20T06:24:07;5.10;99.90
52481;DHT22;38393;52.404;13.532;2023-12-20T06:26:33;5.00;99.90
52481;DHT22;38393;52.404;13.532;2023-12-20T06:28:58;5.10;99.90
52481;DHT22;38393;52.404;13.532;2023-12-20T06:31:23;5.10;99.90
52481;DHT22;38393;52.404;13.532;2023-12-20T06:33:49;5.10;99.90
52481;DHT22;38393;52.404;13.532;2023-12-20T06:36:22;5.10;99.90
52481;DHT22;38393;52.404;13.532;2023-12-20T06:38:48;5.10;99.90
52481;DHT22;38393;52.404;13.532;2023-12-20T06:41:14;5.10;99.90
52481;DHT22;38393;52.404;13.532;2023-12-20T06:43:40;5.10;99.90
52481;DHT22;38393;52.404;13.532;2023-12-20T06:46:06;5.10;99.90
52481;DHT22;38393;52.404;13.532;2023-12-20T06:48:31;5.10;99.90
52481;DHT22;38393;52.404;13.532;2023-12-20T06:50:59;5.10;99.90
52481;DHT22;38393;52.404;13.532;2023-12-20T06:53:25;5.10;99.90
52481;DHT22;38393;52.404;13.532;2023-12-20T06:55:50;5.20;99.90
52481;DHT22;38393;52.404;13.532;2023-12-20T06:58:16;5.20;99.90
52481;DHT22;38393;52.404;13.532;2023-12-20T07:00:41;5.10;99.90
52481;DHT22;38393;52.404;13.532;2023-12-20T07:03:07;5.10;99.90
52481;DHT22;38393;52.404;13.532;2023-12-20T07:05:32;5.10;99.90
52481;DHT22;38393;52.404;13.532;2023-12-20T07:07:58;5.20;99.90
52481;DHT22;38393;52.404;13.532;2023-12-20T07:10:24;5.20;99.90
52481;DHT22;38393;52.404;13.532;2023-12-20T07:12:49;5.20;99.90
52481;DHT22;38393;52.404;13.532;2023-12-20T07:15:16;5.30;99.90
52481;DHT22;38393;52.404;13.532;2023-12-20T07:17:41;5.30;99.90
52481;DHT22;38393;52.404;13.532;2023-12-20T07:20:08;5.40;99.90
52481;DHT22;38393;52.404;13.532;2023-12-20T07:22:36;5.30;99.90
52481;DHT22;38393;52.404;13.532;2023-12-20T07:25:02;5.40;99.90
52481;DHT22;38393;52.404;13.532;2023-12-20T07:27:28;5.40;99.90
52481;DHT22;38393;52.404;13.532;2023-12-20T07:29:54;5.30;99.90
52481;DHT22;38393;52.404;13.532;2023-12-20T07:32:19;5.50;99.90
52481;DHT22;38393;52.404;13.532;2023-12-20T07:34:45;5.50;99.90
52481;DHT22;38393;52.404;13.532;2023-12-20T07:37:10;5.50;99.90
52481;DHT22;38393;52.404;13.532;2023-12-20T07:39:38;5.60;99.90
52481;DHT22;38393;52.404;13.532;2023-12-20T07:42:05;5.50;99.90
52481;DHT22;38393;52.404;13.532;2023-12-20T07:44:30;5.60;99.90
52481;DHT22;38393;52.404;13.532;2023-12-20T07:46:56;5.40;99.90
52481;DHT22;38393;52.404;13.532;2023-12-20T07:49:23;5.50;99.90
52481;DHT22;38393;52.404;13.532;2023-12-20T07:51:48;5.60;99.90
52481;DHT22;38393;52.404;13.532;2023-12-20T07:54:15;5.60;99.90
52481;DHT22;38393;52.404;13.532;2023-12-20T07:56:41;5.60;99.90
52481;DHT22;38393;52.404;13.532;2023-12-20T07:59:07;5.60;99.90
52481;DHT22;38393;52.404;13.532;2023-12-20T08:01:32;5.60;99.90
52481;DHT22;38393;52.404;13.532;2023-12-20T08:03:58;5.60;99.90
52481;DHT22;38393;52.404;13.532;2023-12-20T08:06:23;5.60;99.90
52481;DHT22;38393;52.404;13.532;2023-12-20T08:08:49;5.70;99.90
52481;DHT22;38393;52.404;13.532;2023-12-20T08:11:14;5.70;99.90
52481;DHT22;38393;52.404;13.532;2023-12-20T08:13:40;5.70;99.90
52481;DHT22;38393;52.404;13.532;2023-12-20T08:16:05;5.70;99.90
52481;DHT22;38393;52.404;13.532;2023-12-20T08:18:31;5.80;99.90
52481;DHT22;38393;52.404;13.532;2023-12-20T08:20:56;5.80;99.90
52481;DHT22;38393;52.404;13.532;2023-12-20T08:23:22;5.80;99.90
52481;DHT22;38393;52.404;13.532;2023-12-20T08:25:47;5.70;99.90
52481;DHT22;38393;52.404;13.532;2023-12-20T08:28:13;5.80;99.90
52481;DHT22;38393;52.404;13.532;2023-12-20T08:30:39;5.70;99.90
52481;DHT22;38393;52.404;13.532;2023-12-20T08:33:05;5.70;99.90
52481;DHT22;38393;52.404;13.532;2023-12-20T08:35:33;5.70;99.90
52481;DHT22;38393;52.404;13.532;2023-12-20T08:37:58;5.70;99.90
52481;DHT22;38393;52.404;13.532;2023-12-20T08:40:24;5.70;99.90
52481;DHT22;38393;52.404;13.532;2023-12-20T08:42:49;5.70;99.90
52481;DHT22;38393;52.404;13.532;2023-12-20T08:45:15;5.80;99.90
52481;DHT22;38393;52.404;13.532;2023-12-20T08:47:40;5.80;99.90
52481;DHT22;38393;52.404;13.532;2023-12-20T08:50:07;5.70;99.90
52481;DHT22;38393;52.404;13.532;2023-12-20T08:52:32;5.90;99.90
52481;DHT22;38393;52.404;13.532;2023-12-20T08:54:58;5.90;99.90
52481;DHT22;38393;52.404;13.532;2023-12-20T08:57:23;6.00;99.90
52481;DHT22;38393;52.404;13.532;2023-12-20T08:59:50;6.00;99.90
52481;DHT22;38393;52.404;13.532;2023-12-20T09:02:16;6.10;99.90
52481;DHT22;38393;52.404;13.532;2023-12-20T09:04:42;6.20;99.90
52481;DHT22;38393;52.404;13.532;2023-12-20T09:07:24;6.20;99.90
52481;DHT22;38393;52.404;13.532;2023-12-20T09:09:50;6.10;99.90
52481;DHT22;38393;52.404;13.532;2023-12-20T09:12:18;6.20;99.90
52481;DHT22;38393;52.404;13.532;2023-12-20T09:14:44;6.20;99.90
52481;DHT22;38393;52.404;13.532;2023-12-20T09:17:09;6.20;99.90
52481;DHT22;38393;52.404;13.532;2023-12-20T09:19:36;6.20;99.90
52481;DHT22;38393;52.404;13.532;2023-12-20T09:22:02;6.20;99.90
52481;DHT22;38393;52.404;13.532;2023-12-20T09:24:27;6.20;99.90
52481;DHT22;38393;52.404;13.532;2023-12-20T09:26:53;6.30;99.90
52481;DHT22;38393;52.404;13.532;2023-12-20T09:29:18;6.20;99.90
52481;DHT22;38393;52.404;13.532;2023-12-20T09:31:44;6.20;99.90
52481;DHT22;38393;52.404;13.532;2023-12-20T09:34:11;6.30;99.90
52481;DHT22;38393;52.404;13.532;2023-12-20T09:36:37;6.20;99.90
52481;DHT22;38393;52.404;13.532;2023-12-20T09:39:06;6.30;99.90
52481;DHT22;38393;52.404;13.532;2023-12-20T09:41:36;6.40;99.90
52481;DHT22;38393;52.404;13.532;2023-12-20T09:44:03;6.30;99.90
52481;DHT22;38393;52.404;13.532;2023-12-20T09:46:29;6.40;99.90
52481;DHT22;38393;52.404;13.532;2023-12-20T09:48:59;6.40;99.90
52481;DHT22;38393;52.404;13.532;2023-12-20T09:51:27;6.50;99.90
52481;DHT22;38393;52.404;13.532;2023-12-20T09:53:54;6.50;99.90
52481;DHT22;38393;52.404;13.532;2023-12-20T09:56:20;6.50;99.90
52481;DHT22;38393;52.404;13.532;2023-12-20T09:58:46;6.50;99.90
52481;DHT22;38393;52.404;13.532;2023-12-20T10:01:12;6.50;99.90
52481;DHT22;38393;52.404;13.532;2023-12-20T10:03:39;6.50;99.90
52481;DHT22;38393;52.404;13.532;2023-12-20T10:06:06;6.60;99.90
52481;DHT22;38393;52.404;13.532;2023-12-20T10:08:32;6.60;99.90
52481;DHT22;38393;52.404;13.532;2023-12-20T10:10:58;6.40;99.90
52481;DHT22;38393;52.404;13.532;2023-12-20T10:13:28;6.50;99.90
52481;DHT22;38393;52.404;13.532;2023-12-20T10:15:55;6.60;99.90
52481;DHT22;38393;52.404;13.532;2023-12-20T10:18:21;6.60;99.90
52481;DHT22;38393;52.404;13.532;2023-12-20T10:20:47;6.60;99.90
52481;DHT22;38393;52.404;13.532;2023-12-20T10:23:12;6.50;99.90
52481;DHT22;38393;52.404;13.532;2023-12-20T10:25:39;6.60;99.90
52481;DHT22;38393;52.404;13.532;2023-12-20T10:28:16;6.60;99.90
52481;DHT22;38393;52.404;13.532;2023-12-20T10:30:48;6.60;99.90
52481;DHT22;38393;52.404;13.532;2023-12-20T10:33:13;6.70;99.90
52481;DHT22;38393;52.404;13.532;2023-12-20T10:35:39;6.70;99.90
52481;DHT22;38393;52.404;13.532;2023-12-20T10:38:06;6.70;99.90
52481;DHT22;38393;52.404;13.532;2023-12-20T10:40:34;6.80;99.90
52481;DHT22;38393;52.404;13.532;2023-12-20T10:43:02;6.70;99.90
52481;DHT22;38393;52.404;13.532;2023-12-20T10:45:28;6.70;99.90
52481;DHT22;38393;52.404;13.532;2023-12-20T10:47:54;6.90;99.90
52481;DHT22;38393;52.404;13.532;2023-12-20T10:50:21;6.80;99.90
52481;DHT22;38393;52.404;13.532;2023-12-20T10:52:47;7.10;99.90
52481;DHT22;38393;52.404;13.532;2023-12-20T10:55:13;6.90;99.90
52481;DHT22;38393;52.404;13.532;2023-12-20T10:57:39;7.00;99.90
52481;DHT22;38393;52.404;13.532;2023-12-20T11:00:08;6.80;99.90
52481;DHT22;38393;52.404;13.532;2023-12-20T11:02:40;7.10;99.90
52481;DHT22;38393;52.404;13.532;2023-12-20T11:08:09;7.10;99.90
52481;DHT22;38393;52.404;13.532;2023-12-20T11:10:59;7.10;99.90
52481;DHT22;38393;52.404;13.532;2023-12-20T11:13:32;7.10;99.90
52481;DHT22;38393;52.404;13.532;2023-12-20T11:15:59;7.00;99.90
52481;DHT22;38393;52.404;13.532;2023-12-20T11:18:29;7.00;99.90
52481;DHT22;38393;52.404;13.532;2023-12-20T11:21:00;7.10;99.90
52481;DHT22;38393;52.404;13.532;2023-12-20T11:23:25;7.00;99.90
52481;DHT22;38393;52.404;13.532;2023-12-20T11:25:56;7.00;99.90
52481;DHT22;38393;52.404;13.532;2023-12-20T11:28:25;7.00;99.90
52481;DHT22;38393;52.404;13.532;2023-12-20T11:30:53;6.90;99.90
52481;DHT22;38393;52.404;13.532;2023-12-20T11:33:26;7.00;99.90
52481;DHT22;38393;52.404;13.532;2023-12-20T11:35:58;7.00;99.90
52481;DHT22;38393;52.404;13.532;2023-12-20T11:38:25;6.90;99.90
52481;DHT22;38393;52.404;13.532;2023-12-20T11:40:51;6.80;99.90
52481;DHT22;38393;52.404;13.532;2023-12-20T11:43:37;6.80;99.90
52481;DHT22;38393;52.404;13.532;2023-12-20T11:46:07;7.00;99.90
52481;DHT22;38393;52.404;13.532;2023-12-20T11:48:38;6.80;99.90
52481;DHT22;38393;52.404;13.532;2023-12-20T11:51:13;6.70;99.90
52481;DHT22;38393;52.404;13.532;2023-12-20T11:53:40;6.70;99.90
52481;DHT22;38393;52.404;13.532;2023-12-20T11:56:06;6.70;99.90
52481;DHT22;38393;52.404;13.532;2023-12-20T11:58:33;6.70;99.90
52481;DHT22;38393;52.404;13.532;2023-12-20T12:00:59;6.80;99.90
52481;DHT22;38393;52.404;13.532;2023-12-20T12:03:24;6.70;99.90
52481;DHT22;38393;52.404;13.532;2023-12-20T12:05:50;6.70;99.90
52481;DHT22;38393;52.404;13.532;2023-12-20T12:08:17;6.70;99.90
52481;DHT22;38393;52.404;13.532;2023-12-20T12:10:43;6.60;99.90
52481;DHT22;38393;52.404;13.532;2023-12-20T12:13:09;6.60;99.90
52481;DHT22;38393;52.404;13.532;2023-12-20T12:15:35;6.60;99.90
52481;DHT22;38393;52.404;13.532;2023-12-20T12:18:01;6.60;99.90
52481;DHT22;38393;52.404;13.532;2023-12-20T12:20:27;6.70;99.90
52481;DHT22;38393;52.404;13.532;2023-12-20T12:22:59;6.90;99.90
52481;DHT22;38393;52.404;13.532;2023-12-20T12:25:25;6.80;99.90
52481;DHT22;38393;52.404;13.532;2023-12-20T12:27:51;6.80;99.90
52481;DHT22;38393;52.404;13.532;2023-12-20T12:30:16;6.80;99.90
52481;DHT22;38393;52.404;13.532;2023-12-20T12:32:44;6.70;99.90
52481;DHT22;38393;52.404;13.532;2023-12-20T12:35:10;6.90;99.90
52481;DHT22;38393;52.404;13.532;2023-12-20T12:37:38;6.70;99.90
52481;DHT22;38393;52.404;13.532;2023-12-20T12:40:06;6.80;99.90
52481;DHT22;38393;52.404;13.532;2023-12-20T12:42:32;6.70;99.90
52481;DHT22;38393;52.404;13.532;2023-12-20T12:44:57;6.70;99.90
52481;DHT22;38393;52.404;13.532;2023-12-20T12:47:23;6.50;99.90
52481;DHT22;38393;52.404;13.532;2023-12-20T12:49:51;6.60;99.90
52481;DHT22;38393;52.404;13.532;2023-12-20T12:52:17;6.60;99.90
52481;DHT22;38393;52.404;13.532;2023-12-20T12:54:43;6.50;99.90
52481;DHT22;38393;52.404;13.532;2023-12-20T12:57:10;6.60;99.90
52481;DHT22;38393;52.404;13.532;2023-12-20T12:59:36;6.50;99.90
52481;DHT22;38393;52.404;13.532;2023-12-20T13:02:01;6.40;99.90
52481;DHT22;38393;52.404;13.532;2023-12-20T13:04:27;6.40;99.90
52481;DHT22;38393;52.404;13.532;2023-12-20T13:06:52;6.50;99.90
52481;DHT22;38393;52.404;13.532;2023-12-20T13:09:18;6.40;99.90
52481;DHT22;38393;52.404;13.532;2023-12-20T13:11:44;6.50;99.90
52481;DHT22;38393;52.404;13.532;2023-12-20T13:14:10;6.40;99.90
52481;DHT22;38393;52.404;13.532;2023-12-20T13:16:41;6.40;99.90
52481;DHT22;38393;52.404;13.532;2023-12-20T13:19:06;6.50;99.90
52481;DHT22;38393;52.404;13.532;2023-12-20T13:21:32;6.40;99.90
52481;DHT22;38393;52.404;13.532;2023-12-20T13:23:57;6.40;99.90
52481;DHT22;38393;52.404;13.532;2023-12-20T13:26:23;6.40;99.90
52481;DHT22;38393;52.404;13.532;2023-12-20T13:28:48;6.40;99.90
52481;DHT22;38393;52.404;13.532;2023-12-20T13:31:14;6.30;99.90
52481;DHT22;38393;52.404;13.532;2023-12-20T13:33:39;6.30;99.90
52481;DHT22;38393;52.404;13.532;2023-12-20T13:36:06;6.20;99.90
52481;DHT22;38393;52.404;13.532;2023-12-20T13:38:31;6.20;99.90
52481;DHT22;38393;52.404;13.532;2023-12-20T13:40:57;6.20;99.90
52481;DHT22;38393;52.404;13.532;2023-12-20T13:43:24;6.10;99.90
52481;DHT22;38393;52.404;13.532;2023-12-20T13:45:50;6.20;99.90
52481;DHT22;38393;52.404;13.532;2023-12-20T13:48:15;6.00;99.90
52481;DHT22;38393;52.404;13.532;2023-12-20T13:50:41;6.00;99.90
52481;DHT22;38393;52.404;13.532;2023-12-20T13:53:06;5.90;99.90
52481;DHT22;38393;52.404;13.532;2023-12-20T13:55:38;5.80;99.90
52481;DHT22;38393;52.404;13.532;2023-12-20T13:58:04;5.80;99.90
52481;DHT22;38393;52.404;13.532;2023-12-20T14:00:29;5.60;99.90
52481;DHT22;38393;52.404;13.532;2023-12-20T14:02:55;5.70;99.90
52481;DHT22;38393;52.404;13.532;2023-12-20T14:05:21;5.50;99.90
52481;DHT22;38393;52.404;13.532;2023-12-20T14:07:48;5.50;99.90
52481;DHT22;38393;52.404;13.532;2023-12-20T14:10:14;5.50;99.90
52481;DHT22;38393;52.404;13.532;2023-12-20T14:12:39;5.40;99.90
52481;DHT22;38393;52.404;13.532;2023-12-20T14:15:06;5.30;99.90
52481;DHT22;38393;52.404;13.532;2023-12-20T14:17:39;5.20;99.90
52481;DHT22;38393;52.404;13.532;2023-12-20T14:20:06;5.10;99.90
52481;DHT22;38393;52.404;13.532;2023-12-20T14:22:32;5.00;99.90
52481;DHT22;38393;52.404;13.532;2023-12-20T14:24:58;4.80;99.90
52481;DHT22;38393;52.404;13.532;2023-12-20T14:27:23;4.90;99.90
52481;DHT22;38393;52.404;13.532;2023-12-20T14:29:50;4.80;99.90
52481;DHT22;38393;52.404;13.532;2023-12-20T14:32:15;4.80;99.90
52481;DHT22;38393;52.404;13.532;2023-12-20T14:34:41;4.90;99.90
52481;DHT22;38393;52.404;13.532;2023-12-20T14:37:07;4.80;99.90
52481;DHT22;38393;52.404;13.532;2023-12-20T14:39:32;4.80;99.90
52481;DHT22;38393;52.404;13.532;2023-12-20T14:41:58;4.80;99.90
52481;DHT22;38393;52.404;13.532;2023-12-20T14:44:23;4.70;99.90
52481;DHT22;38393;52.404;13.532;2023-12-20T14:46:50;4.70;99.90
52481;DHT22;38393;52.404;13.532;2023-12-20T14:49:16;4.70;99.90
52481;DHT22;38393;52.404;13.532;2023-12-20T14:51:44;4.90;99.90
52481;DHT22;38393;52.404;13.532;2023-12-20T14:54:09;4.90;99.90
52481;DHT22;38393;52.404;13.532;2023-12-20T14:56:35;4.90;99.90
52481;DHT22;38393;52.404;13.532;2023-12-20T14:59:01;4.80;99.90
52481;DHT22;38393;52.404;13.532;2023-12-20T15:01:26;4.90;99.90
52481;DHT22;38393;52.404;13.532;2023-12-20T15:03:52;4.90;99.90
52481;DHT22;38393;52.404;13.532;2023-12-20T15:06:18;5.00;99.90
52481;DHT22;38393;52.404;13.532;2023-12-20T15:08:45;5.00;99.90
52481;DHT22;38393;52.404;13.532;2023-12-20T15:11:11;5.00;99.90
52481;DHT22;38393;52.404;13.532;2023-12-20T15:13:37;5.00;99.90
52481;DHT22;38393;52.404;13.532;2023-12-20T15:16:03;5.10;99.90
52481;DHT22;38393;52.404;13.532;2023-12-20T15:18:30;5.10;99.90
52481;DHT22;38393;52.404;13.532;2023-12-20T15:20:56;5.20;99.90
52481;DHT22;38393;52.404;13.532;2023-12-20T15:23:21;5.30;99.90
52481;DHT22;38393;52.404;13.532;2023-12-20T15:25:51;5.20;99.90